createdAt,value
2018-12-23T00:01:45.220Z,100.00
2018-12-23T00:04:16.611Z,100.00
2018-12-23T00:06:48.289Z,100.00
2018-12-23T00:09:20.180Z,100.00
2018-12-23T00:11:52.024Z,100.00
2018-12-23T00:14:23.916Z,100.00
2018-12-23T00:16:55.539Z,100.00
2018-12-23T00:19:27.171Z,100.00
2018-12-23T00:21:59.433Z,100.00
2018-12-23T00:24:31.817Z,100.00
2018-12-23T00:27:03.243Z,100.00
2018-12-23T00:29:34.479Z,100.00
2018-12-23T00:32:05.858Z,100.00
2018-12-23T00:34:38.056Z,100.00
2018-12-23T00:37:09.291Z,100.00
2018-12-23T00:39:40.691Z,100.00
2018-12-23T00:42:11.827Z,100.00
2018-12-23T00:44:43.070Z,100.00
2018-12-23T00:47:14.064Z,100.00
2018-12-23T00:49:45.061Z,100.00
2018-12-23T00:52:16.903Z,100.00
2018-12-23T00:54:48.105Z,100.00
2018-12-23T00:57:19.362Z,100.00
2018-12-23T00:59:51.282Z,100.00
2018-12-23T01:02:22.461Z,100.00
2018-12-23T01:04:53.538Z,100.00
2018-12-23T01:07:25.071Z,100.00
2018-12-23T01:09:56.420Z,100.00
2018-12-23T01:12:27.600Z,100.00
2018-12-23T01:14:58.802Z,100.00
2018-12-23T01:17:29.961Z,100.00
2018-12-23T01:20:01.333Z,100.00
2018-12-23T01:22:32.705Z,100.00
2018-12-23T01:25:04.061Z,100.00
2018-12-23T01:27:35.153Z,100.00
2018-12-23T01:30:07.303Z,100.00
2018-12-23T01:32:38.561Z,100.00
2018-12-23T01:35:10.519Z,100.00
2018-12-23T01:37:42.114Z,100.00
2018-12-23T01:40:14.494Z,100.00
2018-12-23T01:42:45.599Z,100.00
2018-12-23T01:45:17.512Z,100.00
2018-12-23T01:47:48.825Z,100.00
2018-12-23T01:50:19.992Z,100.00
2018-12-23T01:52:50.846Z,100.00
2018-12-23T01:55:21.630Z,100.00
2018-12-23T01:57:52.426Z,100.00
2018-12-23T02:00:23.400Z,100.00
2018-12-23T02:02:54.262Z,100.00
2018-12-23T02:05:24.937Z,100.00
2018-12-23T02:07:55.656Z,100.00
2018-12-23T02:10:26.368Z,100.00
2018-12-23T02:12:57.283Z,100.00
2018-12-23T02:15:28.113Z,100.00
2018-12-23T02:17:58.949Z,100.00
2018-12-23T02:20:29.741Z,100.00
2018-12-23T02:23:00.587Z,100.00
2018-12-23T02:25:32.036Z,100.00
2018-12-23T02:28:02.915Z,100.00
2018-12-23T02:30:33.795Z,100.00
2018-12-23T02:33:04.735Z,100.00
2018-12-23T02:35:35.822Z,100.00
2018-12-23T02:38:06.735Z,100.00
2018-12-23T02:40:37.564Z,100.00
2018-12-23T02:43:08.276Z,100.00
2018-12-23T02:45:39.035Z,100.00
2018-12-23T02:48:09.947Z,100.00
2018-12-23T02:50:40.833Z,100.00
2018-12-23T02:53:11.559Z,100.00
2018-12-23T02:55:42.411Z,100.00
2018-12-23T02:58:13.283Z,100.00
2018-12-23T03:00:44.148Z,100.00
2018-12-23T03:03:14.925Z,100.00
2018-12-23T03:05:45.639Z,100.00
2018-12-23T03:08:16.527Z,100.00
2018-12-23T03:10:47.166Z,100.00
2018-12-23T03:13:17.954Z,100.00
2018-12-23T03:15:48.915Z,100.00
2018-12-23T03:18:19.532Z,100.00
2018-12-23T03:20:50.148Z,100.00
2018-12-23T03:23:21.014Z,100.00
2018-12-23T03:25:51.710Z,100.00
2018-12-23T03:28:22.303Z,100.00
2018-12-23T03:30:53.380Z,100.00
2018-12-23T03:33:24.637Z,100.00
2018-12-23T03:35:55.616Z,100.00
2018-12-23T03:38:26.433Z,100.00
2018-12-23T03:40:57.452Z,100.00
2018-12-23T03:43:28.280Z,100.00
2018-12-23T03:45:59.426Z,100.00
2018-12-23T03:48:30.375Z,100.00
2018-12-23T03:51:01.167Z,100.00
2018-12-23T03:53:31.989Z,100.00
2018-12-23T03:56:02.895Z,100.00
2018-12-23T03:58:33.802Z,100.00
2018-12-23T04:01:04.714Z,100.00
2018-12-23T04:03:35.512Z,100.00
2018-12-23T04:06:06.339Z,100.00
2018-12-23T04:08:37.739Z,100.00
2018-12-23T04:11:08.421Z,100.00
2018-12-23T04:13:40.024Z,100.00
2018-12-23T04:16:10.978Z,100.00
2018-12-23T04:18:41.899Z,100.00
2018-12-23T04:21:12.460Z,100.00
2018-12-23T04:23:43.300Z,100.00
2018-12-23T04:26:14.048Z,100.00
2018-12-23T04:28:44.808Z,100.00
2018-12-23T04:31:16.643Z,100.00
2018-12-23T04:33:47.531Z,100.00
2018-12-23T04:36:18.153Z,100.00
2018-12-23T04:38:49.277Z,100.00
2018-12-23T04:41:20.074Z,100.00
2018-12-23T04:43:50.945Z,100.00
2018-12-23T04:46:21.846Z,100.00
2018-12-23T04:48:52.586Z,100.00
2018-12-23T04:51:23.369Z,100.00
2018-12-23T04:53:54.005Z,100.00
2018-12-23T04:56:24.830Z,100.00
2018-12-23T04:58:55.467Z,100.00
2018-12-23T05:01:26.518Z,100.00
2018-12-23T05:03:57.317Z,100.00
2018-12-23T05:06:28.177Z,100.00
2018-12-23T05:08:58.845Z,100.00
2018-12-23T05:11:29.624Z,100.00
2018-12-23T05:14:00.394Z,100.00
2018-12-23T05:16:31.231Z,100.00
2018-12-23T05:19:01.893Z,100.00
2018-12-23T05:21:32.883Z,100.00
2018-12-23T05:24:03.757Z,100.00
2018-12-23T05:26:34.658Z,100.00
2018-12-23T05:29:05.731Z,100.00
2018-12-23T05:31:36.573Z,100.00
2018-12-23T05:34:07.504Z,100.00
2018-12-23T05:36:38.128Z,100.00
2018-12-23T05:39:09.670Z,100.00
2018-12-23T05:41:40.509Z,100.00
2018-12-23T05:44:11.168Z,100.00
2018-12-23T05:46:42.059Z,100.00
2018-12-23T05:49:12.845Z,100.00
2018-12-23T05:51:43.586Z,100.00
2018-12-23T05:54:14.469Z,100.00
2018-12-23T05:56:45.471Z,100.00
2018-12-23T05:59:16.265Z,100.00
2018-12-23T06:01:47.307Z,100.00
2018-12-23T06:04:18.148Z,100.00
2018-12-23T06:06:49.168Z,100.00
2018-12-23T06:09:19.904Z,100.00
2018-12-23T06:11:51.455Z,100.00
2018-12-23T06:14:22.594Z,100.00
2018-12-23T06:16:53.527Z,100.00
2018-12-23T06:19:24.673Z,100.00
2018-12-23T06:21:55.512Z,100.00
2018-12-23T06:24:26.467Z,100.00
2018-12-23T06:26:57.630Z,100.00
2018-12-23T06:29:28.286Z,100.00
2018-12-23T06:31:59.079Z,100.00
2018-12-23T06:34:29.691Z,100.00
2018-12-23T06:37:00.497Z,100.00
2018-12-23T06:39:31.581Z,100.00
2018-12-23T06:42:02.671Z,100.00
2018-12-23T06:44:33.712Z,100.00
2018-12-23T06:47:04.573Z,100.00
2018-12-23T06:49:36.346Z,100.00
2018-12-23T06:52:07.443Z,100.00
2018-12-23T06:54:38.482Z,100.00
2018-12-23T06:57:09.441Z,100.00
2018-12-23T06:59:40.428Z,100.00
2018-12-23T07:02:13.381Z,100.00
2018-12-23T07:04:45.473Z,100.00
2018-12-23T07:07:18.707Z,100.00
2018-12-23T07:09:49.291Z,100.00
2018-12-23T07:12:20.141Z,100.00
2018-12-23T07:14:51.057Z,100.00
2018-12-23T07:17:22.369Z,100.00
2018-12-23T07:19:53.435Z,100.00
2018-12-23T07:22:24.309Z,100.00
2018-12-23T07:24:55.301Z,100.00
2018-12-23T07:27:26.087Z,100.00
2018-12-23T07:29:57.208Z,100.00
2018-12-23T07:32:28.255Z,100.00
2018-12-23T07:34:59.700Z,100.00
2018-12-23T07:37:30.527Z,100.00
2018-12-23T07:40:02.037Z,100.00
2018-12-23T07:42:33.078Z,100.00
2018-12-23T07:45:04.923Z,100.00
2018-12-23T07:47:36.177Z,100.00
2018-12-23T07:50:07.827Z,100.00
2018-12-23T07:52:39.020Z,100.00
2018-12-23T07:55:10.104Z,100.00
2018-12-23T07:57:41.237Z,100.00
2018-12-23T08:00:12.803Z,100.00
2018-12-23T08:02:43.708Z,100.00
2018-12-23T08:05:14.543Z,100.00
2018-12-23T08:07:45.620Z,100.00
2018-12-23T08:10:16.901Z,100.00
2018-12-23T08:12:48.422Z,100.00
2018-12-23T08:15:20.464Z,100.00
2018-12-23T08:17:51.750Z,100.00
2018-12-23T08:20:23.085Z,100.00
2018-12-23T08:22:54.690Z,100.00
2018-12-23T08:25:26.509Z,100.00
2018-12-23T08:27:58.001Z,100.00
2018-12-23T08:30:30.605Z,100.00
2018-12-23T08:33:02.450Z,100.00
2018-12-23T08:35:35.433Z,100.00
2018-12-23T08:38:07.678Z,100.00
2018-12-23T08:40:40.795Z,100.00
2018-12-23T08:43:14.311Z,100.00
2018-12-23T08:45:47.681Z,100.00
2018-12-23T08:48:19.039Z,100.00
2018-12-23T08:50:51.365Z,100.00
2018-12-23T08:53:23.190Z,100.00
2018-12-23T08:55:55.100Z,100.00
2018-12-23T08:58:26.464Z,100.00
2018-12-23T09:00:57.582Z,100.00
2018-12-23T09:03:29.359Z,100.00
2018-12-23T09:06:00.670Z,100.00
2018-12-23T09:08:33.116Z,100.00
2018-12-23T09:11:13.864Z,100.00
2018-12-23T09:13:46.581Z,100.00
2018-12-23T09:16:18.157Z,100.00
2018-12-23T09:18:50.048Z,100.00
2018-12-23T09:21:22.015Z,100.00
2018-12-23T09:23:53.459Z,100.00
2018-12-23T09:26:24.478Z,100.00
2018-12-23T09:28:56.829Z,100.00
2018-12-23T09:31:27.865Z,100.00
2018-12-23T09:33:59.511Z,100.00
2018-12-23T09:36:31.208Z,100.00
2018-12-23T09:39:01.978Z,100.00
2018-12-23T09:41:34.047Z,100.00
2018-12-23T09:44:05.027Z,100.00
2018-12-23T09:46:36.530Z,100.00
2018-12-23T09:49:07.511Z,100.00
2018-12-23T09:51:38.996Z,100.00
2018-12-23T09:54:10.794Z,100.00
2018-12-23T09:56:42.164Z,100.00
2018-12-23T09:59:13.685Z,100.00
2018-12-23T10:01:45.921Z,100.00
2018-12-23T10:04:17.444Z,100.00
2018-12-23T10:06:49.797Z,100.00
2018-12-23T10:09:21.948Z,100.00
2018-12-23T10:11:53.180Z,100.00
2018-12-23T10:14:24.472Z,100.00
2018-12-23T10:16:56.366Z,100.00
2018-12-23T10:19:28.156Z,100.00
2018-12-23T10:21:59.680Z,100.00
2018-12-23T10:24:33.992Z,100.00
2018-12-23T10:27:05.497Z,100.00
2018-12-23T10:29:36.719Z,100.00
2018-12-23T10:32:08.218Z,100.00
2018-12-23T10:34:39.337Z,100.00
2018-12-23T10:37:11.260Z,100.00
2018-12-23T10:39:42.766Z,100.00
2018-12-23T10:42:14.188Z,100.00
2018-12-23T10:44:45.836Z,100.00
2018-12-23T10:47:17.740Z,100.00
2018-12-23T10:49:50.092Z,100.00
2018-12-23T10:52:22.196Z,100.00
2018-12-23T10:54:53.215Z,100.00
2018-12-23T10:57:24.298Z,100.00
2018-12-23T10:59:55.506Z,100.00
2018-12-23T11:02:27.385Z,100.00
2018-12-23T11:04:59.356Z,100.00
2018-12-23T11:07:31.847Z,98.38
2018-12-23T11:10:03.701Z,98.85
2018-12-23T11:12:36.676Z,98.26
2018-12-23T11:15:11.655Z,97.70
2018-12-23T11:17:43.880Z,96.81
2018-12-23T11:20:16.100Z,96.68
2018-12-23T11:22:48.686Z,96.26
2018-12-23T11:25:20.839Z,96.26
2018-12-23T11:27:53.673Z,100.00
2018-12-23T11:30:25.561Z,100.00
2018-12-23T11:32:57.245Z,97.09
2018-12-23T11:35:30.071Z,96.23
2018-12-23T11:38:02.185Z,94.78
2018-12-23T11:40:34.847Z,94.33
2018-12-23T11:43:10.062Z,94.19
2018-12-23T11:45:41.908Z,93.16
2018-12-23T11:48:13.486Z,90.33
2018-12-23T11:50:45.021Z,94.60
2018-12-23T11:53:16.197Z,94.04
2018-12-23T11:55:48.692Z,93.85
2018-12-23T11:58:20.334Z,91.42
2018-12-23T12:00:51.971Z,94.01
2018-12-23T12:03:24.228Z,91.92
2018-12-23T12:05:55.477Z,89.39
2018-12-23T12:08:27.371Z,85.17
2018-12-23T12:10:58.812Z,83.32
2018-12-23T12:13:29.934Z,82.62
2018-12-23T12:16:00.771Z,80.93
2018-12-23T12:18:31.707Z,76.35
2018-12-23T12:21:02.905Z,72.61
2018-12-23T12:23:34.306Z,69.74
2018-12-23T12:26:05.626Z,69.75
2018-12-23T12:28:36.861Z,67.56
2018-12-23T12:31:08.377Z,65.04
2018-12-23T12:33:39.796Z,66.23
2018-12-23T12:36:10.811Z,66.03
2018-12-23T12:38:42.774Z,68.28
2018-12-23T12:41:14.275Z,68.99
2018-12-23T12:43:45.605Z,70.18
2018-12-23T12:46:16.774Z,70.63
2018-12-23T12:48:48.765Z,67.58
2018-12-23T12:51:21.591Z,64.88
2018-12-23T12:53:53.858Z,60.79
2018-12-23T12:56:26.661Z,57.90
2018-12-23T12:58:59.002Z,56.82
2018-12-23T13:01:31.166Z,58.22
2018-12-23T13:04:02.259Z,58.48
2018-12-23T13:06:33.152Z,59.90
2018-12-23T13:09:05.531Z,60.15
2018-12-23T13:11:37.499Z,60.80
2018-12-23T13:14:08.569Z,62.06
2018-12-23T13:16:40.096Z,62.70
2018-12-23T13:19:12.457Z,64.33
2018-12-23T13:21:43.592Z,66.48
2018-12-23T13:24:15.999Z,67.17
2018-12-23T13:26:47.671Z,68.24
2018-12-23T13:29:19.054Z,68.04
2018-12-23T13:31:51.609Z,68.43
2018-12-23T13:34:23.388Z,77.26
2018-12-23T13:36:55.702Z,76.68
2018-12-23T13:39:27.005Z,76.10
2018-12-23T13:42:38.110Z,73.19
2018-12-23T13:46:04.409Z,68.96
2018-12-23T13:51:00.061Z,64.93
2018-12-23T13:55:49.590Z,64.56
2018-12-23T13:58:35.582Z,62.84
2018-12-23T14:02:23.325Z,63.20
2018-12-23T14:05:22.626Z,62.99
2018-12-23T14:08:17.349Z,60.81
2018-12-23T14:11:58.017Z,59.80
2018-12-23T14:14:29.373Z,63.31
2018-12-23T14:17:00.846Z,65.69
2018-12-23T14:19:32.641Z,67.64
2018-12-23T14:22:03.559Z,68.88
2018-12-23T14:24:34.861Z,71.56
2018-12-23T14:27:06.711Z,72.78
2018-12-23T14:29:37.783Z,74.67
2018-12-23T14:32:09.140Z,75.64
2018-12-23T14:34:40.273Z,76.32
2018-12-23T14:37:11.537Z,77.28
2018-12-23T14:39:43.354Z,79.13
2018-12-23T14:42:14.578Z,79.94
2018-12-23T14:44:46.831Z,81.17
2018-12-23T14:47:18.474Z,83.06
2018-12-23T14:49:50.471Z,83.82
2018-12-23T14:52:22.019Z,85.47
2018-12-23T14:54:53.646Z,85.62
2018-12-23T14:57:25.129Z,87.24
2018-12-23T14:59:56.469Z,87.56
2018-12-23T15:02:27.667Z,88.61
2018-12-23T15:04:59.329Z,90.29
2018-12-23T15:07:30.428Z,90.85
2018-12-23T15:10:01.322Z,91.02
2018-12-23T15:12:32.296Z,91.34
2018-12-23T15:15:03.131Z,92.08
2018-12-23T15:17:34.453Z,93.09
2018-12-23T15:20:06.639Z,94.75
2018-12-23T15:22:38.027Z,96.31
2018-12-23T15:25:09.241Z,98.11
2018-12-23T15:27:40.085Z,100.00
2018-12-23T15:30:11.605Z,100.00
2018-12-23T15:32:42.717Z,100.00
2018-12-23T15:35:14.643Z,100.00
2018-12-23T15:37:46.216Z,100.00
2018-12-23T15:40:17.242Z,100.00
2018-12-23T15:42:51.207Z,100.00
2018-12-23T15:45:22.588Z,100.00
2018-12-23T15:47:53.951Z,100.00
2018-12-23T15:50:24.986Z,100.00
2018-12-23T15:52:56.791Z,100.00
2018-12-23T15:55:28.732Z,100.00
2018-12-23T15:58:38.057Z,100.00
2018-12-23T16:01:09.785Z,100.00
2018-12-23T16:03:42.617Z,100.00
2018-12-23T16:06:14.306Z,100.00
2018-12-23T16:08:46.020Z,100.00
2018-12-23T16:11:17.753Z,100.00
2018-12-23T16:13:49.701Z,100.00
2018-12-23T16:16:22.692Z,100.00
2018-12-23T16:18:54.753Z,100.00
2018-12-23T16:21:26.525Z,100.00
2018-12-23T16:23:58.182Z,100.00
2018-12-23T16:26:30.511Z,100.00
2018-12-23T16:29:02.962Z,100.00
2018-12-23T16:31:34.888Z,100.00
2018-12-23T16:34:07.251Z,100.00
2018-12-23T16:36:39.432Z,100.00
2018-12-23T16:39:11.775Z,100.00
2018-12-23T16:41:43.514Z,100.00
2018-12-23T16:44:15.539Z,100.00
2018-12-23T16:46:47.385Z,100.00
2018-12-23T16:49:19.183Z,100.00
2018-12-23T16:51:51.566Z,100.00
2018-12-23T16:54:24.179Z,100.00
2018-12-23T16:56:59.605Z,100.00
2018-12-23T16:59:32.080Z,100.00
2018-12-23T17:02:04.327Z,100.00
2018-12-23T17:04:37.182Z,100.00
2018-12-23T17:07:09.535Z,100.00
2018-12-23T17:09:41.649Z,100.00
2018-12-23T17:12:13.914Z,100.00
2018-12-23T17:14:48.344Z,100.00
2018-12-23T17:17:20.175Z,100.00
2018-12-23T17:19:52.528Z,100.00
2018-12-23T17:22:24.839Z,100.00
2018-12-23T17:24:57.156Z,100.00
2018-12-23T17:27:29.889Z,100.00
2018-12-23T17:30:02.423Z,100.00
2018-12-23T17:32:37.726Z,100.00
2018-12-23T17:35:10.027Z,100.00
2018-12-23T17:37:43.175Z,100.00
2018-12-23T17:40:16.583Z,100.00
2018-12-23T17:42:49.917Z,100.00
2018-12-23T17:45:22.890Z,100.00
2018-12-23T17:47:55.151Z,100.00
2018-12-23T17:50:27.771Z,100.00
2018-12-23T17:53:01.877Z,100.00
2018-12-23T17:55:34.814Z,100.00
2018-12-23T17:58:07.840Z,100.00
2018-12-23T18:00:40.931Z,100.00
2018-12-23T18:03:12.671Z,100.00
2018-12-23T18:05:45.604Z,100.00
2018-12-23T18:08:17.250Z,100.00
2018-12-23T18:10:51.925Z,100.00
2018-12-23T18:13:23.921Z,100.00
2018-12-23T18:15:57.734Z,100.00
2018-12-23T18:18:30.334Z,100.00
2018-12-23T18:21:02.639Z,100.00
2018-12-23T18:23:36.535Z,100.00
2018-12-23T18:26:08.543Z,100.00
2018-12-23T18:28:40.433Z,100.00
2018-12-23T18:31:12.353Z,100.00
2018-12-23T18:33:44.267Z,100.00
2018-12-23T18:36:18.173Z,100.00
2018-12-23T18:38:50.422Z,100.00
2018-12-23T18:41:22.981Z,100.00
2018-12-23T18:43:55.019Z,100.00
2018-12-23T18:46:26.974Z,100.00
2018-12-23T18:48:58.736Z,100.00
2018-12-23T18:51:30.508Z,100.00
2018-12-23T18:54:02.428Z,100.00
2018-12-23T18:56:46.922Z,100.00
2018-12-23T18:59:22.057Z,100.00
2018-12-23T19:02:09.889Z,100.00
2018-12-23T19:04:42.228Z,100.00
2018-12-23T19:07:14.482Z,100.00
2018-12-23T19:10:17.097Z,100.00
2018-12-23T19:14:00.454Z,100.00
2018-12-23T19:17:32.691Z,100.00
2018-12-23T19:21:16.157Z,100.00
2018-12-23T19:24:39.471Z,100.00
2018-12-23T19:28:41.565Z,100.00
2018-12-23T19:32:18.051Z,100.00
2018-12-23T19:35:48.308Z,100.00
2018-12-23T19:39:06.840Z,100.00
2018-12-23T19:42:29.321Z,100.00
2018-12-23T19:45:51.097Z,100.00
2018-12-23T19:49:17.444Z,100.00
2018-12-23T19:53:03.133Z,100.00
2018-12-23T19:56:37.001Z,100.00
2018-12-23T19:59:56.384Z,100.00
2018-12-23T20:03:19.489Z,100.00
2018-12-23T20:06:46.146Z,100.00
2018-12-23T20:10:03.866Z,100.00
2018-12-23T20:13:45.054Z,100.00
2018-12-23T20:17:26.557Z,100.00
2018-12-23T20:21:24.641Z,100.00
2018-12-23T20:24:43.681Z,100.00
2018-12-23T20:27:55.141Z,100.00
2018-12-23T20:31:18.320Z,100.00
2018-12-23T20:34:59.717Z,100.00
2018-12-23T20:38:14.797Z,100.00
2018-12-23T20:42:07.519Z,100.00
2018-12-23T20:45:47.778Z,100.00
2018-12-23T20:49:12.888Z,100.00
2018-12-23T20:53:01.956Z,100.00
2018-12-23T20:56:34.833Z,100.00
2018-12-23T20:59:54.413Z,100.00
2018-12-23T21:03:24.791Z,100.00
2018-12-23T21:06:49.790Z,100.00
2018-12-23T21:10:07.614Z,100.00
2018-12-23T21:13:46.300Z,100.00
2018-12-23T21:17:16.124Z,100.00
2018-12-23T21:20:43.075Z,100.00
2018-12-23T21:24:16.385Z,100.00
2018-12-23T21:28:07.454Z,100.00
2018-12-23T21:31:32.266Z,100.00
2018-12-23T21:34:51.186Z,100.00
2018-12-23T21:38:29.145Z,100.00
2018-12-23T21:42:03.130Z,100.00
2018-12-23T21:45:24.547Z,100.00
2018-12-23T21:49:07.656Z,100.00
2018-12-23T21:52:28.268Z,100.00
2018-12-23T21:56:14.529Z,100.00
2018-12-23T21:59:43.582Z,100.00
2018-12-23T22:03:39.352Z,100.00
2018-12-23T22:07:00.791Z,100.00
2018-12-23T22:10:42.143Z,100.00
2018-12-23T22:13:40.772Z,100.00
2018-12-23T22:16:30.548Z,100.00
2018-12-23T22:19:09.698Z,100.00
2018-12-23T22:21:47.419Z,100.00
2018-12-23T22:24:25.849Z,100.00
2018-12-23T22:27:05.897Z,100.00
2018-12-23T22:29:42.511Z,100.00
2018-12-23T22:32:19.817Z,100.00
2018-12-23T22:34:55.386Z,100.00
2018-12-23T22:37:32.498Z,100.00
2018-12-23T22:40:10.159Z,100.00
2018-12-23T22:42:48.566Z,100.00
2018-12-23T22:45:27.490Z,100.00
2018-12-23T22:48:14.367Z,100.00
2018-12-23T22:50:55.713Z,100.00
2018-12-23T22:53:32.949Z,100.00
2018-12-23T22:56:08.404Z,100.00
2018-12-23T22:58:47.085Z,100.00
2018-12-23T23:01:23.446Z,100.00
2018-12-23T23:03:57.835Z,100.00
2018-12-23T23:06:32.154Z,100.00
2018-12-23T23:09:10.679Z,100.00
2018-12-23T23:11:49.787Z,100.00
2018-12-23T23:14:23.656Z,100.00
2018-12-23T23:17:00.000Z,100.00
2018-12-23T23:19:34.675Z,100.00
2018-12-23T23:22:09.968Z,100.00
2018-12-23T23:24:44.855Z,100.00
2018-12-23T23:27:20.663Z,100.00
2018-12-23T23:29:55.442Z,100.00
2018-12-23T23:32:31.701Z,100.00
2018-12-23T23:35:11.674Z,100.00
2018-12-23T23:37:47.189Z,100.00
2018-12-23T23:40:20.870Z,100.00
2018-12-23T23:42:54.435Z,100.00
2018-12-23T23:45:30.689Z,100.00
2018-12-23T23:48:07.650Z,100.00
2018-12-23T23:50:42.806Z,100.00
2018-12-23T23:53:18.046Z,100.00
2018-12-23T23:55:54.082Z,100.00
2018-12-23T23:58:30.237Z,100.00
